sensor_id;sensor_type;location;lat;lon;timestamp;temperature;humidity
7129;DHT22;3606;52.930;8.644;2023-05-02T00:02:11;11.30;77.10
7129;DHT22;3606;52.930;8.644;2023-05-02T00:04:37;11.20;81.90
7129;DHT22;3606;52.930;8.644;2023-05-02T00:07:03;11.20;92.30
7129;DHT22;3606;52.930;8.644;2023-05-02T00:09:28;11.20;99.90
7129;DHT22;3606;52.930;8.644;2023-05-02T00:11:54;11.20;97.80
7129;DHT22;3606;52.930;8.644;2023-05-02T00:14:20;11.20;92.90
7129;DHT22;3606;52.930;8.644;2023-05-02T00:16:45;11.20;91.50
7129;DHT22;3606;52.930;8.644;2023-05-02T00:19:11;11.20;99.90
7129;DHT22;3606;52.930;8.644;2023-05-02T00:21:37;11.20;80.10
7129;DHT22;3606;52.930;8.644;2023-05-02T00:24:03;11.20;91.20
7129;DHT22;3606;52.930;8.644;2023-05-02T00:26:28;11.20;88.10
7129;DHT22;3606;52.930;8.644;2023-05-02T00:28:55;11.20;90.30
7129;DHT22;3606;52.930;8.644;2023-05-02T00:31:22;11.20;99.90
7129;DHT22;3606;52.930;8.644;2023-05-02T00:33:47;11.20;95.00
7129;DHT22;3606;52.930;8.644;2023-05-02T00:36:17;11.20;99.90
7129;DHT22;3606;52.930;8.644;2023-05-02T00:38:43;11.20;99.90
7129;DHT22;3606;52.930;8.644;2023-05-02T00:41:09;11.20;99.90
7129;DHT22;3606;52.930;8.644;2023-05-02T00:43:35;11.20;97.70
7129;DHT22;3606;52.930;8.644;2023-05-02T00:46:01;11.20;92.90
7129;DHT22;3606;52.930;8.644;2023-05-02T00:48:27;11.20;99.90
7129;DHT22;3606;52.930;8.644;2023-05-02T00:50:53;11.20;92.90
7129;DHT22;3606;52.930;8.644;2023-05-02T00:53:19;11.20;92.70
7129;DHT22;3606;52.930;8.644;2023-05-02T00:55:45;11.10;99.00
7129;DHT22;3606;52.930;8.644;2023-05-02T00:58:15;11.20;91.90
7129;DHT22;3606;52.930;8.644;2023-05-02T01:01:00;11.10;93.70
7129;DHT22;3606;52.930;8.644;2023-05-02T01:11:47;11.00;99.90
7129;DHT22;3606;52.930;8.644;2023-05-02T01:14:16;11.00;99.90
7129;DHT22;3606;52.930;8.644;2023-05-02T01:16:44;11.00;99.90
7129;DHT22;3606;52.930;8.644;2023-05-02T01:19:38;11.00;99.90
7129;DHT22;3606;52.930;8.644;2023-05-02T01:22:07;11.00;99.90
7129;DHT22;3606;52.930;8.644;2023-05-02T01:30:30;11.00;99.90
7129;DHT22;3606;52.930;8.644;2023-05-02T01:32:58;11.00;99.90
7129;DHT22;3606;52.930;8.644;2023-05-02T01:35:26;11.00;99.90
7129;DHT22;3606;52.930;8.644;2023-05-02T01:37:54;11.00;99.90
7129;DHT22;3606;52.930;8.644;2023-05-02T01:40:20;11.00;99.90
7129;DHT22;3606;52.930;8.644;2023-05-02T01:42:51;11.00;99.90
7129;DHT22;3606;52.930;8.644;2023-05-02T01:45:18;11.00;99.90
7129;DHT22;3606;52.930;8.644;2023-05-02T01:47:45;11.00;99.90
7129;DHT22;3606;52.930;8.644;2023-05-02T01:50:16;11.00;99.90
7129;DHT22;3606;52.930;8.644;2023-05-02T01:52:43;11.00;99.90
7129;DHT22;3606;52.930;8.644;2023-05-02T01:55:12;11.00;99.90
7129;DHT22;3606;52.930;8.644;2023-05-02T01:57:40;11.00;99.90
7129;DHT22;3606;52.930;8.644;2023-05-02T02:00:07;10.90;99.90
7129;DHT22;3606;52.930;8.644;2023-05-02T02:02:34;10.80;99.90
7129;DHT22;3606;52.930;8.644;2023-05-02T02:05:01;10.80;99.90
7129;DHT22;3606;52.930;8.644;2023-05-02T02:07:28;10.70;99.90
7129;DHT22;3606;52.930;8.644;2023-05-02T02:09:54;10.70;99.90
7129;DHT22;3606;52.930;8.644;2023-05-02T02:12:28;10.60;99.90
7129;DHT22;3606;52.930;8.644;2023-05-02T02:15:00;10.60;99.90
7129;DHT22;3606;52.930;8.644;2023-05-02T02:17:35;10.60;99.90
7129;DHT22;3606;52.930;8.644;2023-05-02T02:20:05;10.60;99.90
7129;DHT22;3606;52.930;8.644;2023-05-02T02:22:33;10.50;99.90
7129;DHT22;3606;52.930;8.644;2023-05-02T02:25:03;10.50;99.90
7129;DHT22;3606;52.930;8.644;2023-05-02T02:27:29;10.50;99.90
7129;DHT22;3606;52.930;8.644;2023-05-02T02:29:55;10.40;99.90
7129;DHT22;3606;52.930;8.644;2023-05-02T02:32:21;10.30;99.90
7129;DHT22;3606;52.930;8.644;2023-05-02T02:34:46;10.20;99.90
7129;DHT22;3606;52.930;8.644;2023-05-02T02:37:19;10.20;99.90
7129;DHT22;3606;52.930;8.644;2023-05-02T02:40:11;10.00;99.90
7129;DHT22;3606;52.930;8.644;2023-05-02T02:43:07;9.80;99.90
7129;DHT22;3606;52.930;8.644;2023-05-02T02:56:26;9.00;99.90
7129;DHT22;3606;52.930;8.644;2023-05-02T02:59:06;8.90;99.90
7129;DHT22;3606;52.930;8.644;2023-05-02T03:01:35;8.70;99.90
7129;DHT22;3606;52.930;8.644;2023-05-02T03:04:04;8.70;99.90
7129;DHT22;3606;52.930;8.644;2023-05-02T03:06:31;8.60;99.90
7129;DHT22;3606;52.930;8.644;2023-05-02T03:08:57;8.60;99.90
7129;DHT22;3606;52.930;8.644;2023-05-02T03:11:23;8.50;99.90
7129;DHT22;3606;52.930;8.644;2023-05-02T03:13:48;8.50;99.90
7129;DHT22;3606;52.930;8.644;2023-05-02T03:16:24;8.50;99.90
7129;DHT22;3606;52.930;8.644;2023-05-02T03:18:52;8.40;99.90
7129;DHT22;3606;52.930;8.644;2023-05-02T03:21:18;8.40;99.90
7129;DHT22;3606;52.930;8.644;2023-05-02T03:23:43;8.50;99.90
7129;DHT22;3606;52.930;8.644;2023-05-02T03:26:09;8.40;99.90
7129;DHT22;3606;52.930;8.644;2023-05-02T03:28:35;8.40;99.90
7129;DHT22;3606;52.930;8.644;2023-05-02T03:31:00;8.40;99.90
7129;DHT22;3606;52.930;8.644;2023-05-02T03:33:26;8.30;99.90
7129;DHT22;3606;52.930;8.644;2023-05-02T03:35:52;8.40;99.90
7129;DHT22;3606;52.930;8.644;2023-05-02T03:38:18;8.30;99.90
7129;DHT22;3606;52.930;8.644;2023-05-02T03:40:43;8.30;99.90
7129;DHT22;3606;52.930;8.644;2023-05-02T03:43:09;8.30;99.90
7129;DHT22;3606;52.930;8.644;2023-05-02T03:45:35;8.30;99.90
7129;DHT22;3606;52.930;8.644;2023-05-02T03:48:01;8.20;99.90
7129;DHT22;3606;52.930;8.644;2023-05-02T03:50:27;8.20;99.90
7129;DHT22;3606;52.930;8.644;2023-05-02T03:52:52;8.20;99.90
7129;DHT22;3606;52.930;8.644;2023-05-02T03:55:18;8.20;99.90
7129;DHT22;3606;52.930;8.644;2023-05-02T03:57:44;8.20;99.90
7129;DHT22;3606;52.930;8.644;2023-05-02T04:00:10;8.20;99.90
7129;DHT22;3606;52.930;8.644;2023-05-02T04:02:36;8.10;99.90
7129;DHT22;3606;52.930;8.644;2023-05-02T04:05:01;8.10;99.90
7129;DHT22;3606;52.930;8.644;2023-05-02T04:07:27;7.90;99.90
7129;DHT22;3606;52.930;8.644;2023-05-02T04:09:52;7.80;99.90
7129;DHT22;3606;52.930;8.644;2023-05-02T04:12:19;7.60;99.90
7129;DHT22;3606;52.930;8.644;2023-05-02T04:14:44;7.50;99.90
7129;DHT22;3606;52.930;8.644;2023-05-02T04:17:10;7.50;99.90
7129;DHT22;3606;52.930;8.644;2023-05-02T04:19:36;7.40;99.90
7129;DHT22;3606;52.930;8.644;2023-05-02T04:22:02;7.30;99.90
7129;DHT22;3606;52.930;8.644;2023-05-02T04:24:27;7.30;99.90
7129;DHT22;3606;52.930;8.644;2023-05-02T04:26:53;7.40;99.90
7129;DHT22;3606;52.930;8.644;2023-05-02T04:29:19;7.30;99.90
7129;DHT22;3606;52.930;8.644;2023-05-02T04:31:45;7.30;99.90
7129;DHT22;3606;52.930;8.644;2023-05-02T04:34:10;7.30;99.90
7129;DHT22;3606;52.930;8.644;2023-05-02T04:36:36;7.20;99.90
7129;DHT22;3606;52.930;8.644;2023-05-02T04:39:02;7.20;99.90
7129;DHT22;3606;52.930;8.644;2023-05-02T04:41:29;7.20;99.90
7129;DHT22;3606;52.930;8.644;2023-05-02T04:43:54;7.20;99.90
7129;DHT22;3606;52.930;8.644;2023-05-02T04:46:20;7.20;99.90
7129;DHT22;3606;52.930;8.644;2023-05-02T04:48:46;7.30;99.90
7129;DHT22;3606;52.930;8.644;2023-05-02T04:51:11;7.30;99.90
7129;DHT22;3606;52.930;8.644;2023-05-02T04:53:37;7.30;99.90
7129;DHT22;3606;52.930;8.644;2023-05-02T04:56:03;7.30;99.90
7129;DHT22;3606;52.930;8.644;2023-05-02T04:58:29;7.30;99.90
7129;DHT22;3606;52.930;8.644;2023-05-02T05:00:54;7.30;99.90
7129;DHT22;3606;52.930;8.644;2023-05-02T05:03:20;7.40;99.90
7129;DHT22;3606;52.930;8.644;2023-05-02T05:05:46;7.40;99.90
7129;DHT22;3606;52.930;8.644;2023-05-02T05:08:12;7.50;99.90
7129;DHT22;3606;52.930;8.644;2023-05-02T05:10:37;7.50;99.90
7129;DHT22;3606;52.930;8.644;2023-05-02T05:13:05;7.60;99.90
7129;DHT22;3606;52.930;8.644;2023-05-02T05:15:31;7.50;99.90
7129;DHT22;3606;52.930;8.644;2023-05-02T05:17:57;7.60;99.90
7129;DHT22;3606;52.930;8.644;2023-05-02T05:20:23;7.60;99.90
7129;DHT22;3606;52.930;8.644;2023-05-02T05:22:48;7.70;99.90
7129;DHT22;3606;52.930;8.644;2023-05-02T05:25:14;7.80;99.90
7129;DHT22;3606;52.930;8.644;2023-05-02T05:27:40;7.80;99.90
7129;DHT22;3606;52.930;8.644;2023-05-02T05:30:06;7.80;99.90
7129;DHT22;3606;52.930;8.644;2023-05-02T05:32:33;7.80;99.90
7129;DHT22;3606;52.930;8.644;2023-05-02T05:34:59;7.80;99.90
7129;DHT22;3606;52.930;8.644;2023-05-02T05:37:24;7.80;99.90
7129;DHT22;3606;52.930;8.644;2023-05-02T05:39:50;7.90;99.90
7129;DHT22;3606;52.930;8.644;2023-05-02T05:42:16;8.00;99.90
7129;DHT22;3606;52.930;8.644;2023-05-02T05:44:41;8.10;99.90
7129;DHT22;3606;52.930;8.644;2023-05-02T05:47:07;8.10;99.90
7129;DHT22;3606;52.930;8.644;2023-05-02T05:49:32;8.20;99.90
7129;DHT22;3606;52.930;8.644;2023-05-02T05:52:01;8.30;99.90
7129;DHT22;3606;52.930;8.644;2023-05-02T05:54:27;8.30;57.20
7129;DHT22;3606;52.930;8.644;2023-05-02T05:56:53;8.40;99.90
7129;DHT22;3606;52.930;8.644;2023-05-02T05:59:19;8.50;29.20
7129;DHT22;3606;52.930;8.644;2023-05-02T06:01:44;8.50;18.50
7129;DHT22;3606;52.930;8.644;2023-05-02T06:04:10;8.60;10.80
7129;DHT22;3606;52.930;8.644;2023-05-02T06:06:36;8.80;1.00
7129;DHT22;3606;52.930;8.644;2023-05-02T06:09:01;8.80;1.00
7129;DHT22;3606;52.930;8.644;2023-05-02T06:11:27;8.60;1.00
7129;DHT22;3606;52.930;8.644;2023-05-02T06:13:53;8.60;1.00
7129;DHT22;3606;52.930;8.644;2023-05-02T06:16:18;8.60;1.00
7129;DHT22;3606;52.930;8.644;2023-05-02T06:18:45;8.60;1.00
7129;DHT22;3606;52.930;8.644;2023-05-02T06:21:10;8.50;1.00
7129;DHT22;3606;52.930;8.644;2023-05-02T06:23:36;8.30;1.00
7129;DHT22;3606;52.930;8.644;2023-05-02T06:26:03;8.20;1.00
7129;DHT22;3606;52.930;8.644;2023-05-02T06:28:29;8.20;1.00
7129;DHT22;3606;52.930;8.644;2023-05-02T06:31:01;8.10;1.00
7129;DHT22;3606;52.930;8.644;2023-05-02T06:33:31;8.00;1.00
7129;DHT22;3606;52.930;8.644;2023-05-02T06:35:57;8.00;1.00
7129;DHT22;3606;52.930;8.644;2023-05-02T06:38:23;8.00;1.00
7129;DHT22;3606;52.930;8.644;2023-05-02T06:40:50;7.90;1.00
7129;DHT22;3606;52.930;8.644;2023-05-02T06:43:16;7.90;1.00
7129;DHT22;3606;52.930;8.644;2023-05-02T06:45:42;7.90;1.00
7129;DHT22;3606;52.930;8.644;2023-05-02T06:48:08;7.90;1.00
7129;DHT22;3606;52.930;8.644;2023-05-02T06:50:34;7.90;1.00
7129;DHT22;3606;52.930;8.644;2023-05-02T06:52:59;7.90;1.00
7129;DHT22;3606;52.930;8.644;2023-05-02T06:55:26;7.90;1.00
7129;DHT22;3606;52.930;8.644;2023-05-02T06:57:52;7.90;1.00
7129;DHT22;3606;52.930;8.644;2023-05-02T07:00:19;7.80;1.00
7129;DHT22;3606;52.930;8.644;2023-05-02T07:02:46;7.80;1.00
7129;DHT22;3606;52.930;8.644;2023-05-02T07:05:12;7.90;1.00
7129;DHT22;3606;52.930;8.644;2023-05-02T07:07:40;8.00;99.90
7129;DHT22;3606;52.930;8.644;2023-05-02T07:10:07;8.00;99.90
7129;DHT22;3606;52.930;8.644;2023-05-02T07:12:32;8.10;99.90
7129;DHT22;3606;52.930;8.644;2023-05-02T07:14:58;8.10;99.90
7129;DHT22;3606;52.930;8.644;2023-05-02T07:17:23;8.20;99.90
7129;DHT22;3606;52.930;8.644;2023-05-02T07:19:50;8.20;99.90
7129;DHT22;3606;52.930;8.644;2023-05-02T07:22:15;8.30;99.90
7129;DHT22;3606;52.930;8.644;2023-05-02T07:24:41;8.40;99.90
7129;DHT22;3606;52.930;8.644;2023-05-02T07:27:08;8.50;99.90
7129;DHT22;3606;52.930;8.644;2023-05-02T07:29:34;8.60;99.90
7129;DHT22;3606;52.930;8.644;2023-05-02T07:32:00;8.80;99.90
7129;DHT22;3606;52.930;8.644;2023-05-02T07:34:26;9.00;1.00
7129;DHT22;3606;52.930;8.644;2023-05-02T07:36:51;9.00;63.90
7129;DHT22;3606;52.930;8.644;2023-05-02T07:39:17;9.20;1.00
7129;DHT22;3606;52.930;8.644;2023-05-02T07:41:43;9.40;1.00
7129;DHT22;3606;52.930;8.644;2023-05-02T07:44:08;9.50;1.00
7129;DHT22;3606;52.930;8.644;2023-05-02T07:46:34;9.60;1.00
7129;DHT22;3606;52.930;8.644;2023-05-02T07:48:59;9.50;1.00
7129;DHT22;3606;52.930;8.644;2023-05-02T07:51:25;9.30;1.00
7129;DHT22;3606;52.930;8.644;2023-05-02T07:53:51;9.30;1.00
7129;DHT22;3606;52.930;8.644;2023-05-02T07:56:23;9.60;1.00
7129;DHT22;3606;52.930;8.644;2023-05-02T07:58:49;9.70;99.90
7129;DHT22;3606;52.930;8.644;2023-05-02T08:01:16;9.70;99.90
7129;DHT22;3606;52.930;8.644;2023-05-02T08:03:42;9.70;1.00
7129;DHT22;3606;52.930;8.644;2023-05-02T08:06:08;9.80;1.00
7129;DHT22;3606;52.930;8.644;2023-05-02T08:08:34;10.00;86.90
7129;DHT22;3606;52.930;8.644;2023-05-02T08:11:00;10.10;99.90
7129;DHT22;3606;52.930;8.644;2023-05-02T08:13:26;10.30;1.00
7129;DHT22;3606;52.930;8.644;2023-05-02T08:15:52;10.20;99.90
7129;DHT22;3606;52.930;8.644;2023-05-02T08:18:23;9.90;99.90
7129;DHT22;3606;52.930;8.644;2023-05-02T08:20:49;9.90;1.00
7129;DHT22;3606;52.930;8.644;2023-05-02T08:23:15;10.10;1.00
7129;DHT22;3606;52.930;8.644;2023-05-02T08:25:41;10.30;1.00
7129;DHT22;3606;52.930;8.644;2023-05-02T08:28:07;10.50;1.00
7129;DHT22;3606;52.930;8.644;2023-05-02T08:30:32;10.80;42.10
7129;DHT22;3606;52.930;8.644;2023-05-02T08:32:58;11.00;99.90
7129;DHT22;3606;52.930;8.644;2023-05-02T08:35:23;11.10;99.90
7129;DHT22;3606;52.930;8.644;2023-05-02T08:37:49;11.30;99.90
7129;DHT22;3606;52.930;8.644;2023-05-02T08:40:16;11.40;99.90
7129;DHT22;3606;52.930;8.644;2023-05-02T08:42:43;11.40;99.90
7129;DHT22;3606;52.930;8.644;2023-05-02T08:45:11;11.40;99.90
7129;DHT22;3606;52.930;8.644;2023-05-02T08:47:39;11.30;99.90
7129;DHT22;3606;52.930;8.644;2023-05-02T08:50:05;11.20;99.90
7129;DHT22;3606;52.930;8.644;2023-05-02T08:52:31;11.00;99.90
7129;DHT22;3606;52.930;8.644;2023-05-02T08:55:00;10.90;99.90
7129;DHT22;3606;52.930;8.644;2023-05-02T08:57:28;10.80;99.90
7129;DHT22;3606;52.930;8.644;2023-05-02T08:59:54;10.80;99.90
7129;DHT22;3606;52.930;8.644;2023-05-02T09:05:06;10.80;99.90
7129;DHT22;3606;52.930;8.644;2023-05-02T09:07:49;11.30;99.90
7129;DHT22;3606;52.930;8.644;2023-05-02T09:10:15;11.80;99.90
7129;DHT22;3606;52.930;8.644;2023-05-02T09:12:41;12.00;99.90
7129;DHT22;3606;52.930;8.644;2023-05-02T09:15:14;11.60;99.90
7129;DHT22;3606;52.930;8.644;2023-05-02T09:17:42;11.40;99.90
7129;DHT22;3606;52.930;8.644;2023-05-02T09:20:12;11.10;99.90
7129;DHT22;3606;52.930;8.644;2023-05-02T09:22:46;11.20;99.90
7129;DHT22;3606;52.930;8.644;2023-05-02T09:25:13;11.50;99.90
7129;DHT22;3606;52.930;8.644;2023-05-02T09:27:49;12.20;99.90
7129;DHT22;3606;52.930;8.644;2023-05-02T09:32:47;12.20;99.90
7129;DHT22;3606;52.930;8.644;2023-05-02T09:35:15;11.90;99.90
7129;DHT22;3606;52.930;8.644;2023-05-02T09:37:51;11.90;99.90
7129;DHT22;3606;52.930;8.644;2023-05-02T09:40:17;11.80;99.90
7129;DHT22;3606;52.930;8.644;2023-05-02T09:42:43;11.50;99.90
7129;DHT22;3606;52.930;8.644;2023-05-02T09:45:24;10.90;1.00
7129;DHT22;3606;52.930;8.644;2023-05-02T09:47:52;10.50;99.90
7129;DHT22;3606;52.930;8.644;2023-05-02T09:50:33;10.40;1.00
7129;DHT22;3606;52.930;8.644;2023-05-02T09:53:06;10.50;1.00
7129;DHT22;3606;52.930;8.644;2023-05-02T09:55:32;10.80;1.00
7129;DHT22;3606;52.930;8.644;2023-05-02T09:57:59;11.00;1.00
7129;DHT22;3606;52.930;8.644;2023-05-02T10:00:57;11.00;1.00
7129;DHT22;3606;52.930;8.644;2023-05-02T10:03:25;13.10;99.90
7129;DHT22;3606;52.930;8.644;2023-05-02T10:05:51;15.40;99.90
7129;DHT22;3606;52.930;8.644;2023-05-02T10:08:19;16.40;99.90
7129;DHT22;3606;52.930;8.644;2023-05-02T10:10:51;16.00;99.90
7129;DHT22;3606;52.930;8.644;2023-05-02T10:13:19;15.00;99.90
7129;DHT22;3606;52.930;8.644;2023-05-02T10:15:49;14.10;99.90
7129;DHT22;3606;52.930;8.644;2023-05-02T10:18:20;13.40;99.90
7129;DHT22;3606;52.930;8.644;2023-05-02T10:21:10;12.90;99.90
7129;DHT22;3606;52.930;8.644;2023-05-02T10:23:40;12.40;99.90
7129;DHT22;3606;52.930;8.644;2023-05-02T10:26:06;12.10;99.90
7129;DHT22;3606;52.930;8.644;2023-05-02T10:28:32;13.70;99.90
7129;DHT22;3606;52.930;8.644;2023-05-02T10:30:59;16.10;99.90
7129;DHT22;3606;52.930;8.644;2023-05-02T10:33:27;16.80;99.90
7129;DHT22;3606;52.930;8.644;2023-05-02T10:35:54;16.20;99.90
7129;DHT22;3606;52.930;8.644;2023-05-02T10:38:20;15.10;99.90
7129;DHT22;3606;52.930;8.644;2023-05-02T10:40:56;13.80;99.90
7129;DHT22;3606;52.930;8.644;2023-05-02T10:43:23;13.20;99.90
7129;DHT22;3606;52.930;8.644;2023-05-02T10:45:51;12.80;99.90
7129;DHT22;3606;52.930;8.644;2023-05-02T10:48:24;12.60;99.90
7129;DHT22;3606;52.930;8.644;2023-05-02T10:50:58;12.70;99.90
7129;DHT22;3606;52.930;8.644;2023-05-02T10:53:37;12.80;99.90
7129;DHT22;3606;52.930;8.644;2023-05-02T10:56:18;12.80;99.90
7129;DHT22;3606;52.930;8.644;2023-05-02T10:58:49;14.60;99.90
7129;DHT22;3606;52.930;8.644;2023-05-02T11:06:22;15.00;99.90
7129;DHT22;3606;52.930;8.644;2023-05-02T11:08:48;14.30;99.90
7129;DHT22;3606;52.930;8.644;2023-05-02T11:11:39;13.40;99.90
7129;DHT22;3606;52.930;8.644;2023-05-02T11:14:05;12.90;99.90
7129;DHT22;3606;52.930;8.644;2023-05-02T11:19:22;12.50;99.90
7129;DHT22;3606;52.930;8.644;2023-05-02T11:21:48;12.30;99.90
7129;DHT22;3606;52.930;8.644;2023-05-02T11:24:39;12.10;99.90
7129;DHT22;3606;52.930;8.644;2023-05-02T11:30:06;12.10;99.90
7129;DHT22;3606;52.930;8.644;2023-05-02T11:37:38;11.70;99.90
7129;DHT22;3606;52.930;8.644;2023-05-02T11:40:13;11.70;99.90
7129;DHT22;3606;52.930;8.644;2023-05-02T11:42:40;11.70;99.90
7129;DHT22;3606;52.930;8.644;2023-05-02T11:45:06;11.60;99.90
7129;DHT22;3606;52.930;8.644;2023-05-02T11:47:32;11.80;99.90
7129;DHT22;3606;52.930;8.644;2023-05-02T11:49:58;12.00;1.00
7129;DHT22;3606;52.930;8.644;2023-05-02T11:52:26;12.10;1.00
7129;DHT22;3606;52.930;8.644;2023-05-02T11:54:55;12.50;1.00
7129;DHT22;3606;52.930;8.644;2023-05-02T11:57:21;12.70;1.00
7129;DHT22;3606;52.930;8.644;2023-05-02T11:59:51;12.70;1.00
7129;DHT22;3606;52.930;8.644;2023-05-02T12:02:18;12.60;1.00
7129;DHT22;3606;52.930;8.644;2023-05-02T12:04:44;12.60;1.00
7129;DHT22;3606;52.930;8.644;2023-05-02T12:07:10;12.50;1.00
7129;DHT22;3606;52.930;8.644;2023-05-02T12:09:35;12.30;1.00
7129;DHT22;3606;52.930;8.644;2023-05-02T12:12:17;12.30;1.00
7129;DHT22;3606;52.930;8.644;2023-05-02T12:14:43;12.20;1.00
7129;DHT22;3606;52.930;8.644;2023-05-02T12:17:09;12.20;1.00
7129;DHT22;3606;52.930;8.644;2023-05-02T12:19:34;12.10;1.00
7129;DHT22;3606;52.930;8.644;2023-05-02T12:22:02;11.90;1.00
7129;DHT22;3606;52.930;8.644;2023-05-02T12:24:28;12.10;1.00
7129;DHT22;3606;52.930;8.644;2023-05-02T12:27:13;12.40;1.00
7129;DHT22;3606;52.930;8.644;2023-05-02T12:29:43;13.10;1.00
7129;DHT22;3606;52.930;8.644;2023-05-02T12:32:10;13.20;99.90
7129;DHT22;3606;52.930;8.644;2023-05-02T12:34:37;13.20;99.90
7129;DHT22;3606;52.930;8.644;2023-05-02T12:37:04;13.20;1.00
7129;DHT22;3606;52.930;8.644;2023-05-02T12:39:41;13.10;1.00
7129;DHT22;3606;52.930;8.644;2023-05-02T12:42:14;12.80;1.00
7129;DHT22;3606;52.930;8.644;2023-05-02T12:44:42;12.60;1.00
7129;DHT22;3606;52.930;8.644;2023-05-02T12:47:10;12.50;1.00
7129;DHT22;3606;52.930;8.644;2023-05-02T12:49:54;12.20;1.00
7129;DHT22;3606;52.930;8.644;2023-05-02T12:52:50;11.90;1.00
7129;DHT22;3606;52.930;8.644;2023-05-02T12:55:21;11.80;1.00
7129;DHT22;3606;52.930;8.644;2023-05-02T12:57:49;11.90;1.00
7129;DHT22;3606;52.930;8.644;2023-05-02T13:00:18;12.20;1.00
7129;DHT22;3606;52.930;8.644;2023-05-02T13:02:43;12.40;1.00
7129;DHT22;3606;52.930;8.644;2023-05-02T13:05:16;12.30;99.90
7129;DHT22;3606;52.930;8.644;2023-05-02T13:07:41;12.10;99.90
7129;DHT22;3606;52.930;8.644;2023-05-02T13:10:07;11.90;1.00
7129;DHT22;3606;52.930;8.644;2023-05-02T13:12:33;11.70;1.00
7129;DHT22;3606;52.930;8.644;2023-05-02T13:15:05;11.50;1.00
7129;DHT22;3606;52.930;8.644;2023-05-02T13:17:32;11.30;1.00
7129;DHT22;3606;52.930;8.644;2023-05-02T13:19:57;11.10;1.00
7129;DHT22;3606;52.930;8.644;2023-05-02T13:22:24;11.10;1.00
7129;DHT22;3606;52.930;8.644;2023-05-02T13:24:50;11.00;1.00
7129;DHT22;3606;52.930;8.644;2023-05-02T13:27:15;10.90;37.20
7129;DHT22;3606;52.930;8.644;2023-05-02T13:29:43;10.80;36.00
7129;DHT22;3606;52.930;8.644;2023-05-02T13:32:08;10.80;11.60
7129;DHT22;3606;52.930;8.644;2023-05-02T13:34:34;10.90;23.20
7129;DHT22;3606;52.930;8.644;2023-05-02T13:37:00;11.10;1.00
7129;DHT22;3606;52.930;8.644;2023-05-02T13:39:25;11.20;1.00
7129;DHT22;3606;52.930;8.644;2023-05-02T13:41:51;11.30;1.00
7129;DHT22;3606;52.930;8.644;2023-05-02T13:44:16;11.30;1.00
7129;DHT22;3606;52.930;8.644;2023-05-02T13:46:42;11.20;1.00
7129;DHT22;3606;52.930;8.644;2023-05-02T13:49:08;11.10;1.00
7129;DHT22;3606;52.930;8.644;2023-05-02T13:51:34;11.00;1.00
7129;DHT22;3606;52.930;8.644;2023-05-02T13:53:59;10.90;1.00
7129;DHT22;3606;52.930;8.644;2023-05-02T13:56:25;11.00;1.00
7129;DHT22;3606;52.930;8.644;2023-05-02T13:58:51;11.10;1.00
7129;DHT22;3606;52.930;8.644;2023-05-02T14:01:17;11.60;1.00
7129;DHT22;3606;52.930;8.644;2023-05-02T14:03:42;11.90;99.90
7129;DHT22;3606;52.930;8.644;2023-05-02T14:06:08;12.40;99.90
7129;DHT22;3606;52.930;8.644;2023-05-02T14:08:34;12.60;99.90
7129;DHT22;3606;52.930;8.644;2023-05-02T14:11:00;12.60;99.90
7129;DHT22;3606;52.930;8.644;2023-05-02T14:13:25;12.40;99.90
7129;DHT22;3606;52.930;8.644;2023-05-02T14:15:52;12.00;99.90
7129;DHT22;3606;52.930;8.644;2023-05-02T14:18:18;11.60;1.00
7129;DHT22;3606;52.930;8.644;2023-05-02T14:20:44;11.30;1.00
7129;DHT22;3606;52.930;8.644;2023-05-02T14:23:10;11.00;1.00
7129;DHT22;3606;52.930;8.644;2023-05-02T14:25:36;10.80;1.00
7129;DHT22;3606;52.930;8.644;2023-05-02T14:28:02;10.50;1.00
7129;DHT22;3606;52.930;8.644;2023-05-02T14:30:28;10.50;1.00
7129;DHT22;3606;52.930;8.644;2023-05-02T14:32:53;10.50;1.00
7129;DHT22;3606;52.930;8.644;2023-05-02T14:35:19;10.60;1.00
7129;DHT22;3606;52.930;8.644;2023-05-02T14:37:45;10.70;1.00
7129;DHT22;3606;52.930;8.644;2023-05-02T14:40:11;10.90;1.00
7129;DHT22;3606;52.930;8.644;2023-05-02T14:42:41;11.10;1.00
7129;DHT22;3606;52.930;8.644;2023-05-02T14:45:07;11.10;99.90
7129;DHT22;3606;52.930;8.644;2023-05-02T14:47:33;11.00;99.90
7129;DHT22;3606;52.930;8.644;2023-05-02T14:49:59;11.10;99.90
7129;DHT22;3606;52.930;8.644;2023-05-02T14:52:25;11.00;99.90
7129;DHT22;3606;52.930;8.644;2023-05-02T14:54:51;11.00;99.90
7129;DHT22;3606;52.930;8.644;2023-05-02T14:57:17;11.10;1.00
7129;DHT22;3606;52.930;8.644;2023-05-02T14:59:43;11.10;1.00
7129;DHT22;3606;52.930;8.644;2023-05-02T15:02:09;11.30;99.90
7129;DHT22;3606;52.930;8.644;2023-05-02T15:04:34;11.50;99.90
7129;DHT22;3606;52.930;8.644;2023-05-02T15:07:00;11.70;1.00
7129;DHT22;3606;52.930;8.644;2023-05-02T15:09:25;11.70;99.90
7129;DHT22;3606;52.930;8.644;2023-05-02T15:11:52;11.70;99.90
7129;DHT22;3606;52.930;8.644;2023-05-02T15:14:18;11.60;99.90
7129;DHT22;3606;52.930;8.644;2023-05-02T15:16:43;11.50;99.90
7129;DHT22;3606;52.930;8.644;2023-05-02T15:19:09;11.40;99.90
7129;DHT22;3606;52.930;8.644;2023-05-02T15:21:35;11.40;99.90
7129;DHT22;3606;52.930;8.644;2023-05-02T15:24:01;11.50;99.90
7129;DHT22;3606;52.930;8.644;2023-05-02T15:26:27;11.60;1.00
7129;DHT22;3606;52.930;8.644;2023-05-02T15:28:53;11.90;1.00
7129;DHT22;3606;52.930;8.644;2023-05-02T15:31:19;11.90;1.00
7129;DHT22;3606;52.930;8.644;2023-05-02T15:33:45;11.90;1.00
7129;DHT22;3606;52.930;8.644;2023-05-02T15:36:10;11.70;1.00
7129;DHT22;3606;52.930;8.644;2023-05-02T15:38:36;11.50;1.00
7129;DHT22;3606;52.930;8.644;2023-05-02T15:41:07;11.30;1.00
7129;DHT22;3606;52.930;8.644;2023-05-02T15:43:33;11.30;1.00
7129;DHT22;3606;52.930;8.644;2023-05-02T15:46:00;11.10;98.60
7129;DHT22;3606;52.930;8.644;2023-05-02T15:48:27;11.00;99.90
7129;DHT22;3606;52.930;8.644;2023-05-02T15:50:52;10.90;99.90
7129;DHT22;3606;52.930;8.644;2023-05-02T15:53:18;10.90;99.90
7129;DHT22;3606;52.930;8.644;2023-05-02T15:55:47;10.90;99.90
7129;DHT22;3606;52.930;8.644;2023-05-02T15:58:13;11.00;99.90
7129;DHT22;3606;52.930;8.644;2023-05-02T16:00:39;11.10;99.90
7129;DHT22;3606;52.930;8.644;2023-05-02T16:03:05;11.40;99.90
7129;DHT22;3606;52.930;8.644;2023-05-02T16:05:31;11.80;99.90
7129;DHT22;3606;52.930;8.644;2023-05-02T16:07:57;12.00;57.90
7129;DHT22;3606;52.930;8.644;2023-05-02T16:10:23;12.10;1.00
7129;DHT22;3606;52.930;8.644;2023-05-02T16:12:49;12.00;1.00
7129;DHT22;3606;52.930;8.644;2023-05-02T16:15:14;11.90;1.00
7129;DHT22;3606;52.930;8.644;2023-05-02T16:17:40;11.90;1.00
7129;DHT22;3606;52.930;8.644;2023-05-02T16:20:07;11.90;1.00
7129;DHT22;3606;52.930;8.644;2023-05-02T16:22:33;11.80;1.00
7129;DHT22;3606;52.930;8.644;2023-05-02T16:24:59;11.60;1.00
7129;DHT22;3606;52.930;8.644;2023-05-02T16:27:25;11.30;1.00
7129;DHT22;3606;52.930;8.644;2023-05-02T16:29:51;11.10;1.00
7129;DHT22;3606;52.930;8.644;2023-05-02T16:32:16;11.10;1.00
7129;DHT22;3606;52.930;8.644;2023-05-02T16:34:42;11.00;1.00
7129;DHT22;3606;52.930;8.644;2023-05-02T16:37:07;11.00;99.90
7129;DHT22;3606;52.930;8.644;2023-05-02T16:39:37;11.00;99.90
7129;DHT22;3606;52.930;8.644;2023-05-02T16:42:04;10.90;99.90
7129;DHT22;3606;52.930;8.644;2023-05-02T16:44:30;10.70;99.90
7129;DHT22;3606;52.930;8.644;2023-05-02T16:46:55;10.60;99.90
7129;DHT22;3606;52.930;8.644;2023-05-02T16:49:21;10.50;1.00
7129;DHT22;3606;52.930;8.644;2023-05-02T16:51:46;10.50;1.00
7129;DHT22;3606;52.930;8.644;2023-05-02T16:54:18;10.50;1.00
7129;DHT22;3606;52.930;8.644;2023-05-02T16:56:44;10.50;1.00
7129;DHT22;3606;52.930;8.644;2023-05-02T16:59:09;10.50;1.00
7129;DHT22;3606;52.930;8.644;2023-05-02T17:01:35;10.50;1.00